Time;durP1;ratioP1;P1;durP2;ratioP2;P2;SDS_P1;SDS_P2;PMS_P1;PMS_P2;Temp;Humidity;BMP_temperature;BMP_pressure;BME280_temperature;BME280_humidity;BME280_pressure;Samples;Min_cycle;Max_cycle;Signal;HPM_P1;HPM_P2
2023/03/12 00:00:46;;;;;;;44.92;15.25;;;-0.80;99.90;;;;;;5114416;28;20059;-73
2023/03/12 00:03:11;;;;;;;47.67;13.35;;;-0.80;99.90;;;;;;5113349;28;20051;-73
2023/03/12 00:05:39;;;;;;;43.20;13.55;;;-0.80;99.90;;;;;;5113267;28;20044;-73
2023/03/12 00:08:05;;;;;;;61.50;14.10;;;-0.80;99.90;;;;;;5113970;28;20047;-73
2023/03/12 00:10:31;;;;;;;49.20;14.45;;;-0.80;99.90;;;;;;5114049;28;20043;-73
2023/03/12 00:12:57;;;;;;;44.28;13.85;;;-0.70;99.90;;;;;;5113806;28;20055;-73
2023/03/12 00:15:23;;;;;;;43.58;13.88;;;-0.70;99.90;;;;;;5095179;28;20043;-73
2023/03/12 00:17:49;;;;;;;50.88;14.05;;;-0.60;99.90;;;;;;5113578;28;20051;-74
2023/03/12 00:20:15;;;;;;;52.33;14.57;;;-0.70;99.90;;;;;;5113678;28;20040;-72
2023/03/12 00:22:40;;;;;;;48.55;13.70;;;-0.60;99.90;;;;;;5113736;28;20039;-73
2023/03/12 00:25:10;;;;;;;43.22;14.38;;;-0.60;99.90;;;;;;5095049;28;20487;-76
2023/03/12 00:27:36;;;;;;;54.03;14.73;;;-0.60;99.90;;;;;;5113670;28;20039;-74
2023/03/12 00:30:04;;;;;;;46.20;14.63;;;-0.60;99.90;;;;;;5113398;28;20059;-72
2023/03/12 00:32:31;;;;;;;;;;;-0.60;99.90;;;;;;5095420;28;20514;-73
2023/03/12 00:34:56;;;;;;;50.08;15.93;;;-0.60;99.90;;;;;;5113546;28;19920;-73
2023/03/12 00:37:22;;;;;;;46.95;14.77;;;-0.50;99.90;;;;;;5113372;28;20513;-73
2023/03/12 00:39:48;;;;;;;48.63;16.17;;;-0.40;99.90;;;;;;5095305;28;20055;-72
2023/03/12 00:42:14;;;;;;;54.20;16.30;;;-0.40;99.90;;;;;;5111817;28;20039;-74
2023/03/12 00:44:40;;;;;;;47.22;15.77;;;-0.40;99.90;;;;;;5095334;28;20123;-73
2023/03/12 00:47:06;;;;;;;49.55;16.38;;;-0.30;99.90;;;;;;5095221;28;20113;-73
2023/03/12 00:49:31;;;;;;;42.88;15.43;;;-0.40;99.90;;;;;;5094803;28;20048;-73
2023/03/12 00:51:57;;;;;;;48.95;16.10;;;-0.40;99.90;;;;;;5113511;28;20499;-73
2023/03/12 00:54:23;;;;;;;43.72;15.93;;;-0.30;99.90;;;;;;5078204;28;20071;-73
2023/03/12 00:56:49;;;;;;;45.65;16.20;;;-0.30;99.90;;;;;;5113463;28;20117;-72
2023/03/12 00:59:15;;;;;;;52.70;16.33;;;-0.30;99.90;;;;;;5078185;28;20043;-73
2023/03/12 01:01:41;;;;;;;51.25;16.63;;;-0.30;99.90;;;;;;5112847;28;20048;-73
2023/03/12 01:04:07;;;;;;;51.03;16.63;;;-0.30;99.90;;;;;;5113805;28;20043;-74
2023/03/12 01:06:33;;;;;;;51.65;16.52;;;-0.30;99.90;;;;;;5094945;28;20047;-73
2023/03/12 01:09:05;;;;;;;49.05;15.73;;;-0.30;99.90;;;;;;5095523;28;20138;-73
2023/03/12 01:11:31;;;;;;;46.25;17.23;;;-0.20;99.90;;;;;;5094955;28;20043;-74
2023/03/12 01:14:00;;;;;;;53.38;16.55;;;-0.20;99.90;;;;;;5113084;28;20051;-74
2023/03/12 01:16:28;;;;;;;50.47;16.45;;;-0.20;99.90;;;;;;5112826;28;20039;-73
2023/03/12 01:18:56;;;;;;;55.65;17.75;;;-0.10;99.90;;;;;;5095244;28;20137;-73
2023/03/12 01:21:22;;;;;;;62.25;17.75;;;-0.20;99.90;;;;;;5112845;28;20047;-73
2023/03/12 01:23:48;;;;;;;54.28;18.73;;;-0.10;99.90;;;;;;5095126;28;20066;-74
2023/03/12 01:26:14;;;;;;;56.90;18.42;;;-0.10;99.90;;;;;;5112693;28;20051;-76
2023/03/12 01:28:40;;;;;;;57.45;17.88;;;0.10;99.90;;;;;;5112953;28;20054;-74
2023/03/12 01:31:07;;;;;;;64.25;19.05;;;0.00;99.90;;;;;;5112994;28;20070;-74
2023/03/12 01:33:33;;;;;;;62.83;18.67;;;0.00;99.90;;;;;;5077686;28;20550;-73
2023/03/12 01:35:59;;;;;;;56.65;20.42;;;0.00;99.90;;;;;;5095040;28;20126;-72
2023/03/12 01:38:24;;;;;;;60.90;19.60;;;0.00;99.90;;;;;;5112470;28;20137;-74
2023/03/12 01:40:50;;;;;;;57.20;18.85;;;0.00;99.90;;;;;;5111642;28;20391;-73
2023/03/12 01:43:30;;;;;;;56.00;19.40;;;-0.10;99.90;;;;;;5094518;28;20081;-77
2023/03/12 01:46:02;;;;;;;67.65;20.25;;;0.00;99.90;;;;;;5094735;28;20135;-73
2023/03/12 01:48:32;;;;;;;62.50;18.08;;;0.00;99.90;;;;;;5094329;28;20052;-74
2023/03/12 01:50:59;;;;;;;60.95;19.80;;;0.00;99.90;;;;;;5112723;28;20138;-73
2023/03/12 01:53:25;;;;;;;58.38;18.05;;;0.00;99.90;;;;;;5112453;28;20051;-73
2023/03/12 01:55:51;;;;;;;53.67;17.77;;;0.00;99.90;;;;;;5112540;28;20046;-73
2023/03/12 01:58:17;;;;;;;51.03;18.30;;;0.00;99.90;;;;;;5112845;28;20051;-72
2023/03/12 02:00:44;;;;;;;54.33;18.53;;;0.00;99.90;;;;;;5112592;28;20052;-74
2023/03/12 02:03:12;;;;;;;51.95;17.83;;;0.10;99.90;;;;;;5112630;28;20423;-73
2023/03/12 02:06:05;;;;;;;52.05;17.40;;;0.00;99.90;;;;;;5094321;28;20035;-73
2023/03/12 02:08:36;;;;;;;49.83;16.67;;;0.00;99.90;;;;;;5077076;28;20051;-73
2023/03/12 02:11:02;;;;;;;53.05;17.27;;;-0.10;99.90;;;;;;5112600;28;20046;-74
2023/03/12 02:13:28;;;;;;;52.40;15.80;;;0.00;99.90;;;;;;5095764;28;20130;-72
2023/03/12 02:15:54;;;;;;;49.38;16.45;;;-0.10;99.90;;;;;;5116422;28;20044;-73
2023/03/12 02:18:20;;;;;;;52.42;15.95;;;-0.10;99.90;;;;;;5116387;28;20047;-72
2023/03/12 02:21:11;;;;;;;45.85;15.48;;;-0.10;99.90;;;;;;5116000;28;20491;-72
2023/03/12 02:23:51;;;;;;;53.20;16.15;;;-0.10;99.90;;;;;;5097884;28;20441;-74
2023/03/12 02:26:18;;;;;;;42.35;14.13;;;0.00;99.90;;;;;;5098041;28;20052;-74
2023/03/12 02:28:45;;;;;;;49.65;16.17;;;0.00;99.90;;;;;;5097508;28;20059;-73
2023/03/12 02:31:19;;;;;;;50.80;15.57;;;-0.10;99.90;;;;;;5098101;28;20051;-74
2023/03/12 02:33:45;;;;;;;41.70;14.68;;;0.00;99.90;;;;;;5115111;28;20123;-73
2023/03/12 02:36:11;;;;;;;47.50;15.18;;;0.00;99.90;;;;;;5115773;28;20193;-73
2023/03/12 02:38:43;;;;;;;47.67;14.45;;;0.00;99.90;;;;;;5115548;28;20126;-73
2023/03/12 02:41:19;;;;;;;42.55;14.55;;;0.00;99.90;;;;;;5081153;28;20070;-73
2023/03/12 02:43:50;;;;;;;38.60;14.40;;;0.00;99.90;;;;;;5115445;28;20083;-74
2023/03/12 02:46:16;;;;;;;44.33;14.07;;;0.10;99.90;;;;;;5115593;28;20073;-73
2023/03/12 02:48:42;;;;;;;41.75;14.73;;;0.10;99.90;;;;;;5115602;28;20118;-74
2023/03/12 02:51:08;;;;;;;37.08;14.55;;;0.10;99.90;;;;;;5097906;28;20046;-73
2023/03/12 02:53:34;;;;;;;37.28;13.73;;;0.10;99.90;;;;;;5117110;28;20039;-73
2023/03/12 02:56:00;;;;;;;34.67;14.35;;;0.10;99.90;;;;;;5120669;28;20134;-73
2023/03/12 02:58:25;;;;;;;39.60;13.68;;;0.10;99.90;;;;;;5103328;28;20077;-76
2023/03/12 03:00:51;;;;;;;36.80;13.60;;;0.10;99.90;;;;;;5120772;28;20051;-73
2023/03/12 03:03:17;;;;;;;40.85;14.10;;;0.20;99.90;;;;;;5101241;28;20035;-73
2023/03/12 03:05:43;;;;;;;40.92;13.90;;;0.10;99.90;;;;;;5098928;28;20089;-73
2023/03/12 03:08:09;;;;;;;40.67;14.15;;;0.10;99.90;;;;;;5115140;28;20050;-72
2023/03/12 03:10:34;;;;;;;39.67;13.23;;;0.10;99.90;;;;;;5063455;28;20044;-77
2023/03/12 03:13:00;;;;;;;37.67;13.68;;;0.00;99.90;;;;;;5116018;28;20450;-75
2023/03/12 03:15:26;;;;;;;41.67;14.18;;;0.10;99.90;;;;;;5098402;28;20046;-76
2023/03/12 03:17:51;;;;;;;47.15;14.38;;;0.10;99.90;;;;;;5115971;28;20069;-75
2023/03/12 03:20:17;;;;;;;40.67;13.27;;;0.10;99.90;;;;;;5097650;28;20044;-76
2023/03/12 03:22:43;;;;;;;37.83;13.48;;;0.10;99.90;;;;;;5098204;28;20051;-76
2023/03/12 03:25:09;;;;;;;35.85;13.77;;;0.10;99.90;;;;;;5115331;28;20127;-75
2023/03/12 03:27:35;;;;;;;45.53;13.80;;;0.10;99.90;;;;;;5097392;28;20040;-76
2023/03/12 03:30:01;;;;;;;39.40;13.50;;;0.10;99.90;;;;;;5097920;28;20067;-76
2023/03/12 03:32:27;;;;;;;35.08;13.52;;;0.20;99.90;;;;;;5098363;28;20052;-75
2023/03/12 03:34:52;;;;;;;36.75;13.77;;;0.20;99.90;;;;;;5115264;28;20122;-74
2023/03/12 03:37:18;;;;;;;37.78;12.90;;;0.20;99.90;;;;;;5114198;28;20035;-76
2023/03/12 03:39:44;;;;;;;39.13;14.45;;;0.30;99.90;;;;;;5115260;28;20051;-76
2023/03/12 03:42:10;;;;;;;39.83;13.43;;;0.20;99.90;;;;;;5115666;28;20048;-75
2023/03/12 03:44:35;;;;;;;42.05;14.27;;;0.20;99.90;;;;;;5081076;28;20088;-76
2023/03/12 03:47:01;;;;;;;40.50;13.82;;;0.30;99.90;;;;;;5115174;28;20483;-75
2023/03/12 03:49:27;;;;;;;38.90;13.95;;;0.30;99.90;;;;;;5097926;28;20048;-75
2023/03/12 03:51:52;;;;;;;38.75;13.77;;;0.30;99.90;;;;;;5115384;28;20050;-75
2023/03/12 03:54:19;;;;;;;44.85;14.80;;;0.30;99.90;;;;;;5113926;28;20047;-76
2023/03/12 03:56:46;;;;;;;37.72;13.52;;;0.30;99.90;;;;;;5096863;28;20086;-75
2023/03/12 03:59:12;;;;;;;34.10;12.63;;;0.30;99.90;;;;;;5115173;28;20510;-76
2023/03/12 04:01:38;;;;;;;40.70;13.40;;;0.40;99.90;;;;;;5114307;28;20087;-75
2023/03/12 04:04:04;;;;;;;40.13;13.43;;;0.40;99.90;;;;;;5114646;28;20052;-77
2023/03/12 04:06:29;;;;;;;39.03;14.27;;;0.40;99.90;;;;;;5080450;28;20059;-75
2023/03/12 04:08:57;;;;;;;33.47;13.45;;;0.30;99.90;;;;;;5115489;28;20384;-76
2023/03/12 04:11:23;;;;;;;37.33;12.77;;;0.40;99.90;;;;;;5096650;28;20043;-76
2023/03/12 04:13:49;;;;;;;43.58;13.30;;;0.40;99.90;;;;;;5079707;28;20162;-77
2023/03/12 04:16:16;;;;;;;32.65;12.35;;;0.40;99.90;;;;;;5114711;28;20126;-75
2023/03/12 04:18:42;;;;;;;37.57;12.17;;;0.40;99.90;;;;;;5097101;28;20490;-76
2023/03/12 04:21:10;;;;;;;37.95;12.40;;;0.50;99.90;;;;;;5096529;28;20047;-76
2023/03/12 04:23:36;;;;;;;50.53;12.77;;;0.50;99.90;;;;;;5079270;28;20043;-77
2023/03/12 04:26:03;;;;;;;37.08;12.38;;;0.60;99.90;;;;;;5114501;28;20054;-75
2023/03/12 04:28:29;;;;;;;38.60;12.50;;;0.50;99.90;;;;;;5114477;28;20063;-76
2023/03/12 04:31:00;;;;;;;26.05;11.55;;;0.50;99.90;;;;;;5115119;28;20134;-76
2023/03/12 04:33:31;;;;;;;36.17;11.73;;;0.70;99.90;;;;;;5115125;28;20379;-77
2023/03/12 04:35:57;;;;;;;33.53;11.43;;;0.60;99.90;;;;;;5096004;28;20048;-75
2023/03/12 04:38:25;;;;;;;34.42;11.68;;;0.60;99.90;;;;;;5096712;28;20083;-76
2023/03/12 04:40:58;;;;;;;39.38;13.70;;;0.60;99.90;;;;;;5096201;28;20044;-76
2023/03/12 04:43:24;;;;;;;34.83;11.63;;;0.70;99.90;;;;;;5114210;28;20047;-76
2023/03/12 04:45:50;;;;;;;41.10;12.40;;;0.70;99.90;;;;;;5114111;28;20390;-76
2023/03/12 04:48:16;;;;;;;34.95;12.13;;;0.70;99.90;;;;;;5114491;28;20447;-75
2023/03/12 04:50:42;;;;;;;34.67;12.23;;;0.70;99.90;;;;;;5114049;28;20056;-76
2023/03/12 04:53:08;;;;;;;32.05;11.93;;;0.70;99.90;;;;;;5095556;28;20088;-76
2023/03/12 04:55:34;;;;;;;37.28;12.52;;;0.70;99.90;;;;;;5113612;28;20449;-75
2023/03/12 04:58:00;;;;;;;34.53;12.30;;;0.70;99.90;;;;;;5095732;28;20047;-76
2023/03/12 05:00:26;;;;;;;37.75;13.23;;;0.80;99.90;;;;;;5095914;28;20051;-76
2023/03/12 05:02:52;;;;;;;37.47;11.85;;;0.80;99.90;;;;;;5113811;28;20074;-75
2023/03/12 05:05:18;;;;;;;41.53;13.65;;;0.80;99.90;;;;;;5096011;28;20060;-75
2023/03/12 05:07:43;;;;;;;32.58;13.23;;;0.70;99.90;;;;;;5079220;28;20090;-76
2023/03/12 05:10:09;;;;;;;35.00;12.82;;;0.80;99.90;;;;;;5113549;28;20051;-76
2023/03/12 05:12:35;;;;;;;35.53;13.43;;;0.80;99.90;;;;;;5095613;28;20069;-76
2023/03/12 05:15:01;;;;;;;34.42;13.13;;;0.70;99.90;;;;;;5095498;28;20050;-76
2023/03/12 05:17:27;;;;;;;42.72;13.98;;;0.80;99.90;;;;;;5114295;28;20073;-76
2023/03/12 05:19:52;;;;;;;40.70;14.35;;;0.80;99.90;;;;;;5113516;28;20360;-75
2023/03/12 05:22:18;;;;;;;37.90;14.52;;;0.80;99.90;;;;;;5095619;28;20032;-76
2023/03/12 05:24:44;;;;;;;48.70;14.40;;;0.90;99.90;;;;;;5112917;28;20097;-76
2023/03/12 05:27:10;;;;;;;39.42;14.20;;;0.90;99.90;;;;;;5095442;28;20048;-77
2023/03/12 05:29:36;;;;;;;42.13;15.10;;;0.90;99.90;;;;;;5114146;28;20047;-75
2023/03/12 05:32:02;;;;;;;42.22;15.00;;;0.90;99.90;;;;;;5113520;28;20394;-75
2023/03/12 05:34:35;;;;;;;46.33;16.58;;;0.90;99.90;;;;;;5114285;28;20043;-78
2023/03/12 05:37:04;;;;;;;43.38;13.82;;;1.00;99.90;;;;;;5081067;28;20093;-75
2023/03/12 05:39:29;;;;;;;43.08;14.10;;;1.00;99.90;;;;;;5079129;28;20055;-76
2023/03/12 05:41:56;;;;;;;47.45;16.77;;;1.20;99.90;;;;;;5096274;28;20039;-77
2023/03/12 05:44:25;;;;;;;47.38;15.32;;;1.10;99.90;;;;;;5114096;28;20425;-76
2023/03/12 05:46:51;;;;;;;39.97;13.10;;;1.20;99.90;;;;;;5114212;28;20123;-75
2023/03/12 05:49:18;;;;;;;35.60;14.90;;;1.20;99.90;;;;;;5099493;28;20376;-75
2023/03/12 05:51:49;;;;;;;44.13;16.08;;;1.20;99.90;;;;;;5083395;28;20090;-76
2023/03/12 05:54:16;;;;;;;41.50;14.60;;;1.20;99.90;;;;;;5099602;28;20040;-76
2023/03/12 05:56:42;;;;;;;38.45;15.93;;;1.30;99.90;;;;;;5117420;28;20055;-76
2023/03/12 05:59:09;;;;;;;44.28;16.33;;;1.20;99.90;;;;;;5117203;28;20043;-76
2023/03/12 06:01:35;;;;;;;38.95;15.95;;;1.20;99.90;;;;;;5117528;28;20055;-77
2023/03/12 06:04:04;;;;;;;41.63;15.73;;;1.20;99.90;;;;;;5117148;28;20039;-75
2023/03/12 06:06:32;;;;;;;42.42;16.55;;;1.20;99.90;;;;;;5117179;28;20051;-76
2023/03/12 06:08:57;;;;;;;41.63;15.48;;;1.20;99.90;;;;;;5098838;28;20394;-77
2023/03/12 06:11:23;;;;;;;41.90;15.45;;;1.30;99.90;;;;;;5099070;28;20143;-75
2023/03/12 06:13:49;;;;;;;44.42;15.10;;;1.30;99.90;;;;;;5116956;28;20044;-76
2023/03/12 06:16:21;;;;;;;48.17;15.93;;;1.30;99.90;;;;;;5116658;28;20089;-76
2023/03/12 06:18:48;;;;;;;42.00;14.43;;;1.30;99.90;;;;;;5117838;28;20091;-75
2023/03/12 06:21:15;;;;;;;44.67;16.03;;;1.40;99.90;;;;;;5116939;28;20454;-76
2023/03/12 06:23:41;;;;;;;50.50;15.63;;;1.40;99.90;;;;;;5082185;28;20285;-76
2023/03/12 06:26:10;;;;;;;45.38;16.15;;;1.40;99.90;;;;;;5098723;28;20118;-75
2023/03/12 06:28:39;;;;;;;43.40;15.98;;;1.50;99.90;;;;;;5117633;28;20147;-76
2023/03/12 06:31:05;;;;;;;40.92;16.92;;;1.40;99.90;;;;;;5116769;28;20047;-76
2023/03/12 06:33:32;;;;;;;44.10;15.48;;;1.50;99.90;;;;;;5098899;28;20050;-76
2023/03/12 06:35:59;;;;;;;53.53;15.85;;;1.40;99.90;;;;;;5098350;28;20054;-76
2023/03/12 06:38:26;;;;;;;41.65;15.50;;;1.50;99.90;;;;;;5116609;28;20152;-75
2023/03/12 06:41:04;;;;;;;47.23;15.23;;;1.50;99.90;;;;;;5098522;28;20529;-75
2023/03/12 06:43:31;;;;;;;40.67;15.60;;;1.50;99.90;;;;;;5098717;28;20085;-76
2023/03/12 06:45:59;;;;;;;39.25;14.50;;;1.60;99.90;;;;;;5099131;28;20047;-75
2023/03/12 06:48:26;;;;;;;39.53;15.55;;;1.50;99.90;;;;;;5098405;28;20055;-77
2023/03/12 06:50:52;;;;;;;39.10;14.65;;;1.50;99.90;;;;;;5099112;28;20131;-77
2023/03/12 06:53:19;;;;;;;40.70;15.73;;;1.60;99.90;;;;;;5116153;28;20096;-75
2023/03/12 06:55:45;;;;;;;43.13;16.65;;;1.60;99.90;;;;;;5097898;28;20051;-77
2023/03/12 06:58:11;;;;;;;46.20;16.48;;;1.60;99.90;;;;;;5116057;28;20050;-76
2023/03/12 07:00:37;;;;;;;38.15;15.93;;;1.60;99.90;;;;;;5097387;28;20083;-77
2023/03/12 07:03:03;;;;;;;40.03;15.60;;;1.60;99.90;;;;;;5118263;28;20052;-77
2023/03/12 07:05:29;;;;;;;45.47;16.75;;;1.60;99.90;;;;;;5099988;28;20056;-76
2023/03/12 07:07:55;;;;;;;45.47;17.75;;;1.60;99.90;;;;;;5098364;28;20050;-77
2023/03/12 07:10:21;;;;;;;47.65;16.58;;;1.60;99.90;;;;;;5097679;28;20047;-75
2023/03/12 07:12:47;;;;;;;39.55;16.15;;;1.60;99.90;;;;;;5081318;28;20399;-76
2023/03/12 07:15:12;;;;;;;41.97;17.20;;;1.60;99.90;;;;;;5114704;28;20035;-76
2023/03/12 07:17:38;;;;;;;42.45;15.10;;;1.60;99.90;;;;;;5116564;28;20075;-77
2023/03/12 07:20:05;;;;;;;48.90;18.10;;;1.60;99.90;;;;;;5115938;28;20058;-76
2023/03/12 07:22:31;;;;;;;39.25;15.65;;;1.60;99.90;;;;;;5097623;28;20059;-76
2023/03/12 07:24:57;;;;;;;46.47;16.80;;;1.60;99.90;;;;;;5116170;28;20039;-76
2023/03/12 07:27:23;;;;;;;45.05;16.92;;;1.60;99.90;;;;;;5096992;28;20066;-75
2023/03/12 07:29:48;;;;;;;50.28;16.70;;;1.60;99.90;;;;;;5097200;28;20047;-75
2023/03/12 07:32:14;;;;;;;43.15;15.05;;;1.70;99.90;;;;;;5097507;28;20112;-75
2023/03/12 07:34:40;;;;;;;45.00;16.33;;;1.70;99.90;;;;;;5115785;28;20043;-74
2023/03/12 07:37:06;;;;;;;37.55;15.95;;;1.70;99.90;;;;;;5115197;28;20340;-73
2023/03/12 07:39:32;;;;;;;44.50;15.23;;;1.70;99.90;;;;;;5115306;28;20062;-74
2023/03/12 07:41:57;;;;;;;42.38;15.63;;;1.60;99.90;;;;;;5115116;28;20049;-73
2023/03/12 07:44:25;;;;;;;47.25;16.92;;;1.70;99.90;;;;;;5096954;28;20118;-73
2023/03/12 07:46:51;;;;;;;42.78;16.10;;;1.60;99.90;;;;;;5115663;28;20054;-73
2023/03/12 07:49:17;;;;;;;47.03;15.02;;;1.70;99.90;;;;;;5115191;28;20112;-74
2023/03/12 07:51:42;;;;;;;34.53;11.63;;;1.70;99.90;;;;;;5114926;28;20483;-75
2023/03/12 07:54:08;;;;;;;35.75;14.57;;;1.70;99.90;;;;;;5114735;28;20083;-75
2023/03/12 07:56:34;;;;;;;41.10;14.63;;;1.80;99.90;;;;;;5080257;28;20088;-74
2023/03/12 07:58:59;;;;;;;45.22;16.95;;;1.80;99.90;;;;;;5114637;28;20051;-74
2023/03/12 08:01:30;;;;;;;48.40;17.08;;;1.70;99.90;;;;;;5080190;28;20425;-74
2023/03/12 08:03:57;;;;;;;25.80;8.80;;;1.70;99.90;;;;;;5114916;28;20546;-74
2023/03/12 08:06:23;;;;;;;38.42;15.75;;;1.70;99.90;;;;;;5114547;28;20051;-73
2023/03/12 08:08:49;;;;;;;34.78;12.40;;;1.80;99.90;;;;;;5114577;28;20051;-73
2023/03/12 08:11:15;;;;;;;35.15;15.48;;;1.80;99.90;;;;;;5095566;28;20132;-75
2023/03/12 08:13:41;;;;;;;35.22;13.45;;;1.80;99.90;;;;;;5114524;28;20395;-74
2023/03/12 08:16:07;;;;;;;41.60;14.82;;;1.90;99.90;;;;;;5114732;28;20047;-76
2023/03/12 08:18:33;;;;;;;34.05;12.43;;;1.90;99.90;;;;;;5112937;28;20476;-75
2023/03/12 08:20:58;;;;;;;37.95;11.80;;;1.90;99.90;;;;;;5096419;28;20132;-73
2023/03/12 08:23:25;;;;;;;27.30;10.63;;;2.00;99.90;;;;;;5096308;28;20047;-74
2023/03/12 08:25:51;;;;;;;28.10;11.27;;;1.90;99.90;;;;;;5114277;28;20062;-73
2023/03/12 08:28:19;;;;;;;30.73;11.30;;;2.00;99.90;;;;;;5114247;28;20377;-72
2023/03/12 08:30:51;;;;;;;33.83;10.27;;;2.00;99.90;;;;;;5079632;28;20289;-75
2023/03/12 08:33:17;;;;;;;32.17;10.77;;;2.00;99.90;;;;;;5114055;28;20047;-73
2023/03/12 08:35:42;;;;;;;34.17;10.63;;;2.00;99.90;;;;;;5095550;28;20124;-74
2023/03/12 08:38:08;;;;;;;44.63;11.77;;;2.00;99.90;;;;;;5113082;28;20127;-72
2023/03/12 08:40:34;;;;;;;29.77;9.52;;;2.00;99.90;;;;;;5078733;28;20040;-72
2023/03/12 08:43:00;;;;;;;26.13;10.00;;;2.00;99.90;;;;;;5096381;28;20058;-74
2023/03/12 08:45:25;;;;;;;30.80;10.63;;;2.10;99.90;;;;;;5095146;28;20380;-73
2023/03/12 08:47:51;;;;;;;38.40;11.10;;;2.10;99.90;;;;;;5078872;28;20090;-74
2023/03/12 08:50:17;;;;;;;27.80;10.73;;;2.10;99.90;;;;;;5113915;28;20051;-74
2023/03/12 08:52:43;;;;;;;28.00;10.02;;;2.10;99.90;;;;;;5095747;28;20526;-74
2023/03/12 08:55:11;;;;;;;33.15;9.70;;;2.20;99.90;;;;;;5113622;28;20050;-72
2023/03/12 08:57:37;;;;;;;29.75;9.13;;;2.30;99.90;;;;;;5095705;28;20043;-73
2023/03/12 09:00:10;;;;;;;29.48;9.93;;;2.40;99.90;;;;;;5078724;28;20088;-74
2023/03/12 09:02:39;;;;;;;33.97;8.00;;;2.40;99.90;;;;;;5114075;28;20082;-73
2023/03/12 09:05:05;;;;;;;34.08;10.95;;;2.50;99.90;;;;;;5113482;28;20044;-74
2023/03/12 09:07:32;;;;;;;29.40;10.57;;;2.40;99.90;;;;;;5113615;28;20040;-74
2023/03/12 09:09:57;;;;;;;28.20;10.52;;;2.40;99.90;;;;;;5113528;28;20427;-77
2023/03/12 09:12:23;;;;;;;37.00;10.85;;;2.40;99.90;;;;;;5113447;28;20126;-74
2023/03/12 09:14:50;;;;;;;33.80;10.90;;;2.40;99.90;;;;;;5095401;28;20058;-72
2023/03/12 09:17:16;;;;;;;26.63;10.48;;;2.40;99.90;;;;;;5113463;28;20590;-73
2023/03/12 09:19:42;;;;;;;32.28;11.75;;;2.40;99.90;;;;;;5095008;28;20043;-72
2023/03/12 09:22:08;;;;;;;27.25;10.73;;;2.40;99.90;;;;;;5096254;28;20048;-74
2023/03/12 09:24:33;;;;;;;34.53;12.32;;;2.40;99.90;;;;;;5117448;28;20124;-73
2023/03/12 09:27:00;;;;;;;43.35;13.02;;;2.40;99.90;;;;;;5117795;28;20101;-73
2023/03/12 09:29:25;;;;;;;28.58;11.70;;;2.50;99.90;;;;;;5117644;28;20039;-73
2023/03/12 09:31:51;;;;;;;38.17;12.75;;;2.40;99.90;;;;;;5099364;28;20047;-73
2023/03/12 09:34:17;;;;;;;34.33;12.38;;;2.50;99.90;;;;;;5099528;28;20039;-74
2023/03/12 09:36:43;;;;;;;39.30;14.32;;;2.50;99.90;;;;;;5117600;28;20051;-75
2023/03/12 09:39:09;;;;;;;43.65;15.80;;;2.50;99.90;;;;;;5099689;28;20085;-75
2023/03/12 09:41:38;;;;;;;46.47;14.65;;;2.50;99.90;;;;;;5116813;28;20079;-72
2023/03/12 09:44:16;;;;;;;49.58;17.10;;;2.50;99.90;;;;;;5099276;28;20127;-74
2023/03/12 09:46:50;;;;;;;53.03;21.65;;;2.50;99.90;;;;;;5117955;28;20055;-73
2023/03/12 09:49:27;;;;;;;53.47;18.30;;;2.50;99.90;;;;;;5098925;28;20054;-73
2023/03/12 09:51:55;;;;;;;50.95;19.27;;;2.50;99.90;;;;;;5099403;28;20086;-72
2023/03/12 09:54:35;;;;;;;51.47;20.23;;;2.50;99.90;;;;;;5117075;28;20036;-73
2023/03/12 09:57:10;;;;;;;59.88;21.15;;;2.60;99.90;;;;;;5118126;28;20052;-74
2023/03/12 09:59:36;;;;;;;56.35;20.88;;;2.60;99.90;;;;;;5082738;28;20103;-72
2023/03/12 10:02:24;;;;;;;52.85;20.75;;;2.50;99.90;;;;;;5098918;28;20063;-73
2023/03/12 10:04:53;;;;;;;57.55;19.90;;;2.60;99.90;;;;;;5099104;28;20047;-73
2023/03/12 10:07:31;;;;;;;60.90;21.33;;;2.70;99.90;;;;;;5082338;28;20051;-72
2023/03/12 10:10:10;;;;;;;;;;;2.70;99.90;;;;;;5082860;28;20475;-72
2023/03/12 10:12:51;;;;;;;59.60;21.08;;;2.70;99.90;;;;;;5099050;28;19919;-72
2023/03/12 10:15:36;;;;;;;58.88;20.98;;;2.70;99.90;;;;;;5098556;28;20127;-73
2023/03/12 10:18:15;;;;;;;57.50;20.33;;;2.80;99.90;;;;;;5116700;28;20039;-73
2023/03/12 10:21:03;;;;;;;60.67;20.33;;;2.90;99.90;;;;;;5098970;28;20487;-73
2023/03/12 10:23:55;;;;;;;59.92;20.17;;;3.00;99.90;;;;;;5116095;28;20043;-73
2023/03/12 10:26:24;;;;;;;64.88;20.85;;;3.00;99.90;;;;;;5098332;28;20046;-73
2023/03/12 10:28:59;;;;;;;64.85;19.27;;;3.10;99.90;;;;;;5116151;28;20104;-72
2023/03/12 10:31:31;;;;;;;56.70;19.75;;;3.20;99.90;;;;;;5116135;28;20499;-74
2023/03/12 10:34:05;;;;;;;65.70;21.45;;;3.20;99.90;;;;;;5115844;28;20043;-76
2023/03/12 10:36:39;;;;;;;66.20;22.90;;;3.20;99.90;;;;;;5116498;28;20039;-74
2023/03/12 10:39:14;;;;;;;58.35;19.05;;;3.20;99.90;;;;;;5116286;28;20090;-73
2023/03/12 10:41:45;;;;;;;59.00;20.52;;;3.30;99.90;;;;;;5116544;28;20051;-74
2023/03/12 10:44:24;;;;;;;60.10;21.17;;;3.40;99.90;;;;;;5117183;28;20059;-73
2023/03/12 10:47:02;;;;;;;69.07;19.92;;;3.50;99.90;;;;;;5116995;28;20054;-73
2023/03/12 10:49:34;;;;;;;65.28;22.15;;;3.60;99.90;;;;;;5098732;28;20127;-73
2023/03/12 10:52:15;;;;;;;61.58;20.48;;;3.60;99.90;;;;;;5098697;28;20530;-72
2023/03/12 10:54:43;;;;;;;60.55;19.83;;;3.70;99.90;;;;;;5098342;28;20126;-72
2023/03/12 10:57:11;;;;;;;62.00;21.17;;;3.70;99.90;;;;;;5116027;28;20051;-73
2023/03/12 10:59:41;;;;;;;63.35;20.42;;;3.80;99.90;;;;;;5097502;28;20063;-73
2023/03/12 11:02:29;;;;;;;64.15;20.20;;;3.80;99.90;;;;;;5116022;28;20055;-73
2023/03/12 11:04:55;;;;;;;57.38;19.58;;;3.90;99.90;;;;;;5097790;28;20039;-71
2023/03/12 11:07:29;;;;;;;64.18;19.58;;;3.90;99.90;;;;;;5116688;28;20380;-72
2023/03/12 11:10:07;;;;;;;61.50;19.42;;;4.00;99.90;;;;;;5116075;28;20039;-73
2023/03/12 11:12:38;;;;;;;62.40;18.80;;;4.00;99.90;;;;;;5115802;28;20055;-73
2023/03/12 11:15:24;;;;;;;66.50;19.20;;;4.10;99.90;;;;;;5080495;28;20403;-73
2023/03/12 11:17:50;;;;;;;58.15;17.85;;;4.20;99.90;;;;;;5114920;28;20100;-73
2023/03/12 11:20:28;;;;;;;61.28;19.20;;;4.20;99.90;;;;;;5097657;28;20135;-74
2023/03/12 11:22:54;;;;;;;70.93;22.25;;;4.30;99.90;;;;;;5098456;28;20352;-73
2023/03/12 11:25:26;;;;;;;64.43;19.55;;;4.40;99.90;;;;;;5097747;28;20101;-74
2023/03/12 11:27:55;;;;;;;65.25;19.73;;;4.40;99.90;;;;;;5116272;28;20043;-73
2023/03/12 11:30:28;;;;;;;60.08;19.73;;;4.50;99.90;;;;;;5098191;28;20047;-72
2023/03/12 11:32:56;;;;;;;61.10;19.33;;;4.50;99.90;;;;;;5097564;28;20044;-75
2023/03/12 11:35:30;;;;;;;60.45;19.23;;;4.60;99.90;;;;;;5115770;28;20092;-74
2023/03/12 11:38:24;;;;;;;56.78;20.08;;;4.70;99.90;;;;;;5114494;28;20104;-72
2023/03/12 11:40:52;;;;;;;54.08;19.02;;;4.80;99.90;;;;;;5115258;28;20043;-73
2023/03/12 11:43:41;;;;;;;65.57;19.42;;;4.80;99.90;;;;;;5114202;28;20040;-72
2023/03/12 11:46:16;;;;;;;59.65;19.88;;;5.00;99.90;;;;;;5114420;28;20092;-73
2023/03/12 11:49:03;;;;;;;57.60;18.98;;;4.90;99.90;;;;;;5114982;28;20167;-71
2023/03/12 11:51:45;;;;;;;60.00;18.40;;;5.10;99.90;;;;;;5114284;28;20052;-73
2023/03/12 11:54:37;;;;;;;54.67;18.25;;;5.10;99.90;;;;;;5114915;28;20118;-73
2023/03/12 11:57:14;;;;;;;57.03;18.67;;;5.10;99.90;;;;;;5115751;28;20118;-72
2023/03/12 12:00:11;;;;;;;54.97;19.23;;;5.20;99.90;;;;;;5080416;28;20059;-72
2023/03/12 12:02:58;;;;;;;55.55;19.52;;;5.30;99.90;;;;;;5114671;28;20054;-73
2023/03/12 12:05:54;;;;;;;56.45;19.02;;;5.40;99.90;;;;;;5114775;28;20043;-72
2023/03/12 12:09:08;;;;;;;51.42;18.70;;;5.40;99.90;;;;;;5080574;28;20483;-72
2023/03/12 12:12:11;;;;;;;58.30;18.38;;;5.50;99.90;;;;;;5108105;28;20522;-73
2023/03/12 12:15:26;;;;;;;55.80;18.17;;;5.60;99.90;;;;;;5114793;28;20395;-71
2023/03/12 12:18:19;;;;;;;63.30;18.90;;;5.70;99.90;;;;;;5107473;28;20060;-71
2023/03/12 12:20:59;;;;;;;59.78;18.65;;;5.70;99.90;;;;;;5114842;28;20082;-72
2023/03/12 12:24:03;;;;;;;63.92;17.95;;;5.90;99.90;;;;;;5080853;28;20464;-71
2023/03/12 12:26:43;;;;;;;65.80;19.92;;;6.00;99.90;;;;;;5084066;28;20479;-72
2023/03/12 12:29:48;;;;;;;76.93;20.50;;;6.10;99.90;;;;;;5114927;28;20050;-71
2023/03/12 12:32:37;;;;;;;72.83;19.60;;;6.30;99.90;;;;;;5114355;28;20096;-72
2023/03/12 12:35:28;;;;;;;69.45;17.67;;;6.40;99.90;;;;;;5114104;28;20043;-71
2023/03/12 12:38:29;;;;;;;75.47;21.48;;;6.50;99.90;;;;;;5114072;28;20043;-71
2023/03/12 12:41:19;;;;;;;62.08;17.88;;;6.70;99.90;;;;;;5114115;28;20043;-71
2023/03/12 12:43:50;;;;;;;73.90;20.15;;;6.80;99.90;;;;;;5114539;28;20048;-73
2023/03/12 12:46:27;;;;;;;69.68;17.88;;;6.80;99.90;;;;;;5114086;28;20040;-72
2023/03/12 12:49:05;;;;;;;76.68;18.88;;;6.90;99.90;;;;;;5096032;28;20047;-72